sensor_id;sensor_type;location;lat;lon;timestamp;P1;durP1;ratioP1;P2;durP2;ratioP2
32228;SDS011;18717;48.034;11.186;2023-02-11T00:00:22;64.50;;;27.73;;
32228;SDS011;18717;48.034;11.186;2023-02-11T00:02:50;62.78;;;25.42;;
32228;SDS011;18717;48.034;11.186;2023-02-11T00:05:17;48.75;;;25.48;;
32228;SDS011;18717;48.034;11.186;2023-02-11T00:07:45;75.75;;;30.45;;
32228;SDS011;18717;48.034;11.186;2023-02-11T00:10:14;99.47;;;35.42;;
32228;SDS011;18717;48.034;11.186;2023-02-11T00:12:42;63.17;;;28.73;;
32228;SDS011;18717;48.034;11.186;2023-02-11T00:15:09;61.25;;;27.05;;
32228;SDS011;18717;48.034;11.186;2023-02-11T00:17:37;52.72;;;24.50;;
32228;SDS011;18717;48.034;11.186;2023-02-11T00:20:05;48.90;;;24.35;;
32228;SDS011;18717;48.034;11.186;2023-02-11T00:22:33;52.95;;;25.02;;
32228;SDS011;18717;48.034;11.186;2023-02-11T00:25:01;69.18;;;31.40;;
32228;SDS011;18717;48.034;11.186;2023-02-11T00:27:30;64.18;;;27.52;;
32228;SDS011;18717;48.034;11.186;2023-02-11T00:29:57;57.40;;;26.83;;
32228;SDS011;18717;48.034;11.186;2023-02-11T00:32:27;54.03;;;26.42;;
32228;SDS011;18717;48.034;11.186;2023-02-11T00:34:55;53.03;;;24.92;;
32228;SDS011;18717;48.034;11.186;2023-02-11T00:37:22;49.20;;;24.60;;
32228;SDS011;18717;48.034;11.186;2023-02-11T00:39:50;42.33;;;22.63;;
32228;SDS011;18717;48.034;11.186;2023-02-11T00:42:17;70.85;;;29.77;;
32228;SDS011;18717;48.034;11.186;2023-02-11T00:44:46;51.88;;;26.60;;
32228;SDS011;18717;48.034;11.186;2023-02-11T00:47:14;45.63;;;25.42;;
32228;SDS011;18717;48.034;11.186;2023-02-11T00:49:41;56.15;;;25.65;;
32228;SDS011;18717;48.034;11.186;2023-02-11T00:52:09;52.50;;;27.80;;
32228;SDS011;18717;48.034;11.186;2023-02-11T00:54:37;53.95;;;23.80;;
32228;SDS011;18717;48.034;11.186;2023-02-11T00:57:04;43.35;;;23.20;;
32228;SDS011;18717;48.034;11.186;2023-02-11T00:59:32;55.13;;;24.25;;
32228;SDS011;18717;48.034;11.186;2023-02-11T01:02:01;43.90;;;24.58;;
32228;SDS011;18717;48.034;11.186;2023-02-11T01:04:28;43.08;;;22.83;;
32228;SDS011;18717;48.034;11.186;2023-02-11T01:06:56;47.10;;;23.20;;
32228;SDS011;18717;48.034;11.186;2023-02-11T01:09:24;51.10;;;23.20;;
32228;SDS011;18717;48.034;11.186;2023-02-11T01:11:51;39.80;;;20.55;;
32228;SDS011;18717;48.034;11.186;2023-02-11T01:14:19;35.78;;;19.15;;
32228;SDS011;18717;48.034;11.186;2023-02-11T01:16:46;39.13;;;20.10;;
32228;SDS011;18717;48.034;11.186;2023-02-11T01:19:15;38.55;;;20.73;;
32228;SDS011;18717;48.034;11.186;2023-02-11T01:21:43;43.20;;;20.63;;
32228;SDS011;18717;48.034;11.186;2023-02-11T01:24:10;42.08;;;21.75;;
32228;SDS011;18717;48.034;11.186;2023-02-11T01:26:38;36.33;;;20.13;;
32228;SDS011;18717;48.034;11.186;2023-02-11T01:29:06;35.65;;;20.50;;
32228;SDS011;18717;48.034;11.186;2023-02-11T01:31:34;36.13;;;19.38;;
32228;SDS011;18717;48.034;11.186;2023-02-11T01:34:02;32.22;;;19.30;;
32228;SDS011;18717;48.034;11.186;2023-02-11T01:36:31;38.30;;;20.10;;
32228;SDS011;18717;48.034;11.186;2023-02-11T01:38:58;36.33;;;20.98;;
32228;SDS011;18717;48.034;11.186;2023-02-11T01:41:26;41.75;;;20.58;;
32228;SDS011;18717;48.034;11.186;2023-02-11T01:43:53;41.65;;;21.17;;
32228;SDS011;18717;48.034;11.186;2023-02-11T01:46:31;42.28;;;21.58;;
32228;SDS011;18717;48.034;11.186;2023-02-11T01:49:01;43.03;;;20.38;;
32228;SDS011;18717;48.034;11.186;2023-02-11T01:51:33;35.33;;;15.87;;
32228;SDS011;18717;48.034;11.186;2023-02-11T01:54:04;36.75;;;19.05;;
32228;SDS011;18717;48.034;11.186;2023-02-11T01:56:50;37.30;;;17.77;;
32228;SDS011;18717;48.034;11.186;2023-02-11T01:59:38;41.90;;;18.30;;
32228;SDS011;18717;48.034;11.186;2023-02-11T02:02:08;29.15;;;17.65;;
32228;SDS011;18717;48.034;11.186;2023-02-11T02:04:40;27.58;;;14.13;;
32228;SDS011;18717;48.034;11.186;2023-02-11T02:07:13;34.85;;;17.05;;
32228;SDS011;18717;48.034;11.186;2023-02-11T02:09:47;31.63;;;18.58;;
32228;SDS011;18717;48.034;11.186;2023-02-11T02:12:15;32.95;;;17.80;;
32228;SDS011;18717;48.034;11.186;2023-02-11T02:14:43;32.83;;;17.77;;
32228;SDS011;18717;48.034;11.186;2023-02-11T02:17:12;34.20;;;17.48;;
32228;SDS011;18717;48.034;11.186;2023-02-11T02:22:47;36.25;;;18.73;;
32228;SDS011;18717;48.034;11.186;2023-02-11T02:25:43;35.65;;;18.73;;
32228;SDS011;18717;48.034;11.186;2023-02-11T02:28:25;38.30;;;19.35;;
32228;SDS011;18717;48.034;11.186;2023-02-11T02:31:19;35.65;;;19.15;;
32228;SDS011;18717;48.034;11.186;2023-02-11T02:33:55;41.88;;;21.02;;
32228;SDS011;18717;48.034;11.186;2023-02-11T02:36:29;39.85;;;21.02;;
32228;SDS011;18717;48.034;11.186;2023-02-11T02:39:02;39.60;;;20.58;;
32228;SDS011;18717;48.034;11.186;2023-02-11T02:41:31;46.33;;;21.65;;
32228;SDS011;18717;48.034;11.186;2023-02-11T02:44:00;42.80;;;21.58;;
32228;SDS011;18717;48.034;11.186;2023-02-11T02:46:29;42.35;;;21.23;;
32228;SDS011;18717;48.034;11.186;2023-02-11T02:48:59;46.85;;;22.13;;
32228;SDS011;18717;48.034;11.186;2023-02-11T02:51:36;37.50;;;18.92;;
32228;SDS011;18717;48.034;11.186;2023-02-11T02:54:19;35.78;;;20.05;;
32228;SDS011;18717;48.034;11.186;2023-02-11T02:57:12;36.78;;;19.30;;
32228;SDS011;18717;48.034;11.186;2023-02-11T02:59:49;43.38;;;18.00;;
32228;SDS011;18717;48.034;11.186;2023-02-11T03:02:25;39.60;;;19.55;;
32228;SDS011;18717;48.034;11.186;2023-02-11T03:04:58;32.53;;;17.67;;
32228;SDS011;18717;48.034;11.186;2023-02-11T03:07:31;36.75;;;18.45;;
32228;SDS011;18717;48.034;11.186;2023-02-11T03:10:05;30.48;;;17.08;;
32228;SDS011;18717;48.034;11.186;2023-02-11T03:12:35;37.28;;;18.40;;
32228;SDS011;18717;48.034;11.186;2023-02-11T03:15:04;29.90;;;16.27;;
32228;SDS011;18717;48.034;11.186;2023-02-11T03:17:33;31.23;;;16.83;;
32228;SDS011;18717;48.034;11.186;2023-02-11T03:20:03;35.50;;;17.60;;
32228;SDS011;18717;48.034;11.186;2023-02-11T03:22:34;31.00;;;16.10;;
32228;SDS011;18717;48.034;11.186;2023-02-11T03:25:05;31.17;;;16.80;;
32228;SDS011;18717;48.034;11.186;2023-02-11T03:27:33;25.67;;;15.68;;
32228;SDS011;18717;48.034;11.186;2023-02-11T03:30:08;26.92;;;14.30;;
32228;SDS011;18717;48.034;11.186;2023-02-11T03:32:39;25.83;;;14.55;;
32228;SDS011;18717;48.034;11.186;2023-02-11T03:35:10;32.45;;;14.48;;
32228;SDS011;18717;48.034;11.186;2023-02-11T03:37:42;32.78;;;16.90;;
32228;SDS011;18717;48.034;11.186;2023-02-11T03:40:12;29.55;;;17.77;;
32228;SDS011;18717;48.034;11.186;2023-02-11T03:42:42;33.08;;;18.40;;
32228;SDS011;18717;48.034;11.186;2023-02-11T03:45:13;42.15;;;19.52;;
32228;SDS011;18717;48.034;11.186;2023-02-11T03:47:42;40.05;;;18.08;;
32228;SDS011;18717;48.034;11.186;2023-02-11T03:50:13;32.88;;;18.30;;
32228;SDS011;18717;48.034;11.186;2023-02-11T03:52:42;28.27;;;15.55;;
32228;SDS011;18717;48.034;11.186;2023-02-11T03:55:11;21.08;;;12.85;;
32228;SDS011;18717;48.034;11.186;2023-02-11T03:57:40;16.52;;;11.20;;
32228;SDS011;18717;48.034;11.186;2023-02-11T04:00:08;16.77;;;10.95;;
32228;SDS011;18717;48.034;11.186;2023-02-11T04:02:37;20.77;;;11.90;;
32228;SDS011;18717;48.034;11.186;2023-02-11T04:05:06;17.52;;;10.55;;
32228;SDS011;18717;48.034;11.186;2023-02-11T04:07:36;19.67;;;11.73;;
32228;SDS011;18717;48.034;11.186;2023-02-11T04:10:04;17.85;;;11.55;;
32228;SDS011;18717;48.034;11.186;2023-02-11T04:12:33;21.70;;;12.50;;
32228;SDS011;18717;48.034;11.186;2023-02-11T04:15:00;26.05;;;13.57;;
32228;SDS011;18717;48.034;11.186;2023-02-11T04:17:28;31.05;;;15.82;;
32228;SDS011;18717;48.034;11.186;2023-02-11T04:19:55;27.95;;;15.35;;
32228;SDS011;18717;48.034;11.186;2023-02-11T04:22:23;28.58;;;15.88;;
32228;SDS011;18717;48.034;11.186;2023-02-11T04:24:52;29.45;;;16.70;;
32228;SDS011;18717;48.034;11.186;2023-02-11T04:27:20;28.35;;;15.65;;
32228;SDS011;18717;48.034;11.186;2023-02-11T04:29:47;28.77;;;16.33;;
32228;SDS011;18717;48.034;11.186;2023-02-11T04:32:15;29.90;;;14.52;;
32228;SDS011;18717;48.034;11.186;2023-02-11T04:34:43;25.83;;;14.68;;
32228;SDS011;18717;48.034;11.186;2023-02-11T04:37:10;26.40;;;14.63;;
32228;SDS011;18717;48.034;11.186;2023-02-11T04:39:38;27.63;;;15.45;;
32228;SDS011;18717;48.034;11.186;2023-02-11T04:42:07;28.90;;;15.18;;
32228;SDS011;18717;48.034;11.186;2023-02-11T04:44:34;22.98;;;14.30;;
32228;SDS011;18717;48.034;11.186;2023-02-11T04:47:02;24.13;;;14.68;;
32228;SDS011;18717;48.034;11.186;2023-02-11T04:49:30;21.50;;;13.70;;
32228;SDS011;18717;48.034;11.186;2023-02-11T04:51:57;23.55;;;14.32;;
32228;SDS011;18717;48.034;11.186;2023-02-11T04:54:25;28.30;;;14.80;;
32228;SDS011;18717;48.034;11.186;2023-02-11T04:56:53;26.45;;;14.50;;
32228;SDS011;18717;48.034;11.186;2023-02-11T04:59:22;28.13;;;14.32;;
32228;SDS011;18717;48.034;11.186;2023-02-11T05:01:50;24.98;;;14.57;;
32228;SDS011;18717;48.034;11.186;2023-02-11T05:04:18;30.98;;;14.15;;
32228;SDS011;18717;48.034;11.186;2023-02-11T05:06:45;26.52;;;14.23;;
32228;SDS011;18717;48.034;11.186;2023-02-11T05:09:13;21.75;;;13.38;;
32228;SDS011;18717;48.034;11.186;2023-02-11T05:11:42;25.40;;;13.52;;
32228;SDS011;18717;48.034;11.186;2023-02-11T05:14:09;21.17;;;13.05;;
32228;SDS011;18717;48.034;11.186;2023-02-11T05:16:38;25.20;;;14.02;;
32228;SDS011;18717;48.034;11.186;2023-02-11T05:19:06;20.60;;;12.32;;
32228;SDS011;18717;48.034;11.186;2023-02-11T05:21:34;20.00;;;12.13;;
32228;SDS011;18717;48.034;11.186;2023-02-11T05:24:01;27.63;;;13.77;;
32228;SDS011;18717;48.034;11.186;2023-02-11T05:26:29;21.00;;;12.32;;
32228;SDS011;18717;48.034;11.186;2023-02-11T05:28:57;20.63;;;12.75;;
32228;SDS011;18717;48.034;11.186;2023-02-11T05:31:24;21.35;;;12.30;;
32228;SDS011;18717;48.034;11.186;2023-02-11T05:33:53;25.27;;;13.63;;
32228;SDS011;18717;48.034;11.186;2023-02-11T05:36:21;19.88;;;12.40;;
32228;SDS011;18717;48.034;11.186;2023-02-11T05:38:49;23.15;;;13.43;;
32228;SDS011;18717;48.034;11.186;2023-02-11T05:41:16;20.35;;;12.88;;
32228;SDS011;18717;48.034;11.186;2023-02-11T05:43:46;20.55;;;12.95;;
32228;SDS011;18717;48.034;11.186;2023-02-11T05:46:15;22.08;;;13.27;;
32228;SDS011;18717;48.034;11.186;2023-02-11T05:48:43;19.60;;;11.77;;
32228;SDS011;18717;48.034;11.186;2023-02-11T05:51:12;20.00;;;13.27;;
32228;SDS011;18717;48.034;11.186;2023-02-11T05:53:39;17.00;;;11.55;;
32228;SDS011;18717;48.034;11.186;2023-02-11T05:56:07;19.33;;;11.48;;
32228;SDS011;18717;48.034;11.186;2023-02-11T05:58:35;18.52;;;12.30;;
32228;SDS011;18717;48.034;11.186;2023-02-11T06:01:03;17.60;;;11.15;;
32228;SDS011;18717;48.034;11.186;2023-02-11T06:03:31;17.73;;;12.27;;
32228;SDS011;18717;48.034;11.186;2023-02-11T06:05:59;23.13;;;13.02;;
32228;SDS011;18717;48.034;11.186;2023-02-11T06:08:28;19.45;;;12.18;;
32228;SDS011;18717;48.034;11.186;2023-02-11T06:10:55;21.90;;;13.02;;
32228;SDS011;18717;48.034;11.186;2023-02-11T06:13:23;22.35;;;13.80;;
32228;SDS011;18717;48.034;11.186;2023-02-11T06:15:57;20.23;;;13.38;;
32228;SDS011;18717;48.034;11.186;2023-02-11T06:18:25;26.63;;;13.93;;
32228;SDS011;18717;48.034;11.186;2023-02-11T06:20:52;29.10;;;14.50;;
32228;SDS011;18717;48.034;11.186;2023-02-11T06:23:20;20.98;;;12.63;;
32228;SDS011;18717;48.034;11.186;2023-02-11T06:25:49;22.67;;;13.93;;
32228;SDS011;18717;48.034;11.186;2023-02-11T06:28:18;24.48;;;14.10;;
32228;SDS011;18717;48.034;11.186;2023-02-11T06:30:46;19.50;;;13.55;;
32228;SDS011;18717;48.034;11.186;2023-02-11T06:33:14;23.40;;;14.32;;
32228;SDS011;18717;48.034;11.186;2023-02-11T06:35:41;23.35;;;15.70;;
32228;SDS011;18717;48.034;11.186;2023-02-11T06:38:09;21.17;;;14.15;;
32228;SDS011;18717;48.034;11.186;2023-02-11T06:40:37;28.77;;;17.67;;
32228;SDS011;18717;48.034;11.186;2023-02-11T06:43:06;34.75;;;19.55;;
32228;SDS011;18717;48.034;11.186;2023-02-11T06:45:33;35.65;;;19.25;;
32228;SDS011;18717;48.034;11.186;2023-02-11T06:48:01;39.65;;;19.60;;
32228;SDS011;18717;48.034;11.186;2023-02-11T06:50:29;28.73;;;15.43;;
32228;SDS011;18717;48.034;11.186;2023-02-11T06:52:57;23.65;;;14.70;;
32228;SDS011;18717;48.034;11.186;2023-02-11T06:55:25;22.90;;;14.02;;
32228;SDS011;18717;48.034;11.186;2023-02-11T06:57:52;22.23;;;13.30;;
32228;SDS011;18717;48.034;11.186;2023-02-11T07:00:21;20.52;;;13.32;;
32228;SDS011;18717;48.034;11.186;2023-02-11T07:02:49;24.42;;;14.93;;
32228;SDS011;18717;48.034;11.186;2023-02-11T07:05:17;19.80;;;12.30;;
32228;SDS011;18717;48.034;11.186;2023-02-11T07:07:45;21.90;;;13.88;;
32228;SDS011;18717;48.034;11.186;2023-02-11T07:10:12;25.55;;;14.07;;
32228;SDS011;18717;48.034;11.186;2023-02-11T07:12:40;24.63;;;17.50;;
32228;SDS011;18717;48.034;11.186;2023-02-11T07:15:08;30.95;;;16.23;;
32228;SDS011;18717;48.034;11.186;2023-02-11T07:17:37;27.10;;;16.85;;
32228;SDS011;18717;48.034;11.186;2023-02-11T07:20:05;17.30;;;12.63;;
32228;SDS011;18717;48.034;11.186;2023-02-11T07:22:34;18.15;;;13.00;;
32228;SDS011;18717;48.034;11.186;2023-02-11T07:25:01;17.30;;;12.23;;
32228;SDS011;18717;48.034;11.186;2023-02-11T07:27:29;20.27;;;11.90;;
32228;SDS011;18717;48.034;11.186;2023-02-11T07:29:57;15.23;;;11.23;;
32228;SDS011;18717;48.034;11.186;2023-02-11T07:32:24;14.27;;;10.68;;
32228;SDS011;18717;48.034;11.186;2023-02-11T07:34:53;17.65;;;11.18;;
32228;SDS011;18717;48.034;11.186;2023-02-11T07:37:21;17.33;;;11.00;;
32228;SDS011;18717;48.034;11.186;2023-02-11T07:39:49;18.40;;;12.40;;
32228;SDS011;18717;48.034;11.186;2023-02-11T07:42:16;19.20;;;10.77;;
32228;SDS011;18717;48.034;11.186;2023-02-11T07:44:44;15.07;;;11.45;;
32228;SDS011;18717;48.034;11.186;2023-02-11T07:47:15;28.20;;;16.15;;
32228;SDS011;18717;48.034;11.186;2023-02-11T07:49:43;29.80;;;18.42;;
32228;SDS011;18717;48.034;11.186;2023-02-11T07:52:12;35.15;;;19.75;;
32228;SDS011;18717;48.034;11.186;2023-02-11T07:54:40;26.60;;;15.50;;
32228;SDS011;18717;48.034;11.186;2023-02-11T07:57:08;25.33;;;15.43;;
32228;SDS011;18717;48.034;11.186;2023-02-11T07:59:36;22.25;;;15.35;;
32228;SDS011;18717;48.034;11.186;2023-02-11T08:02:04;21.27;;;13.55;;
32228;SDS011;18717;48.034;11.186;2023-02-11T08:04:31;25.45;;;15.13;;
32228;SDS011;18717;48.034;11.186;2023-02-11T08:06:59;26.00;;;14.77;;
32228;SDS011;18717;48.034;11.186;2023-02-11T08:09:28;23.55;;;14.85;;
32228;SDS011;18717;48.034;11.186;2023-02-11T08:11:59;17.58;;;13.50;;
32228;SDS011;18717;48.034;11.186;2023-02-11T08:14:27;18.92;;;14.07;;
32228;SDS011;18717;48.034;11.186;2023-02-11T08:16:55;16.30;;;12.13;;
32228;SDS011;18717;48.034;11.186;2023-02-11T08:19:22;15.35;;;11.27;;
32228;SDS011;18717;48.034;11.186;2023-02-11T08:21:53;11.68;;;9.35;;
32228;SDS011;18717;48.034;11.186;2023-02-11T08:24:21;13.00;;;9.65;;
32228;SDS011;18717;48.034;11.186;2023-02-11T08:26:50;18.25;;;12.50;;
32228;SDS011;18717;48.034;11.186;2023-02-11T08:29:18;17.42;;;13.07;;
32228;SDS011;18717;48.034;11.186;2023-02-11T08:31:46;19.35;;;13.13;;
32228;SDS011;18717;48.034;11.186;2023-02-11T08:34:14;19.92;;;12.77;;
32228;SDS011;18717;48.034;11.186;2023-02-11T08:36:44;12.40;;;9.75;;
32228;SDS011;18717;48.034;11.186;2023-02-11T08:39:14;16.58;;;10.48;;
32228;SDS011;18717;48.034;11.186;2023-02-11T08:41:46;17.20;;;10.77;;
32228;SDS011;18717;48.034;11.186;2023-02-11T08:44:16;14.60;;;11.50;;
32228;SDS011;18717;48.034;11.186;2023-02-11T08:46:43;17.65;;;11.95;;
32228;SDS011;18717;48.034;11.186;2023-02-11T08:49:11;15.32;;;10.40;;
32228;SDS011;18717;48.034;11.186;2023-02-11T08:51:39;21.52;;;13.50;;
32228;SDS011;18717;48.034;11.186;2023-02-11T08:54:06;13.50;;;10.93;;
32228;SDS011;18717;48.034;11.186;2023-02-11T08:56:35;12.02;;;10.70;;
32228;SDS011;18717;48.034;11.186;2023-02-11T08:59:03;12.15;;;9.70;;
32228;SDS011;18717;48.034;11.186;2023-02-11T09:01:33;23.33;;;13.32;;
32228;SDS011;18717;48.034;11.186;2023-02-11T09:04:01;18.58;;;12.48;;
32228;SDS011;18717;48.034;11.186;2023-02-11T09:06:28;14.07;;;10.45;;
32228;SDS011;18717;48.034;11.186;2023-02-11T09:08:56;12.90;;;10.00;;
32228;SDS011;18717;48.034;11.186;2023-02-11T09:11:25;13.30;;;10.55;;
32228;SDS011;18717;48.034;11.186;2023-02-11T09:13:54;15.70;;;10.93;;
32228;SDS011;18717;48.034;11.186;2023-02-11T09:16:22;14.00;;;10.82;;
32228;SDS011;18717;48.034;11.186;2023-02-11T09:18:52;13.88;;;10.18;;
32228;SDS011;18717;48.034;11.186;2023-02-11T09:21:22;13.68;;;10.13;;
32228;SDS011;18717;48.034;11.186;2023-02-11T09:23:49;12.82;;;10.75;;
32228;SDS011;18717;48.034;11.186;2023-02-11T09:26:18;13.48;;;9.57;;
32228;SDS011;18717;48.034;11.186;2023-02-11T09:28:46;15.80;;;10.93;;
32228;SDS011;18717;48.034;11.186;2023-02-11T09:31:15;15.70;;;10.63;;
32228;SDS011;18717;48.034;11.186;2023-02-11T09:33:46;13.85;;;10.15;;
32228;SDS011;18717;48.034;11.186;2023-02-11T09:36:17;15.82;;;11.25;;
32228;SDS011;18717;48.034;11.186;2023-02-11T09:38:46;14.25;;;9.90;;
32228;SDS011;18717;48.034;11.186;2023-02-11T09:44:09;16.20;;;10.15;;
32228;SDS011;18717;48.034;11.186;2023-02-11T09:46:45;13.15;;;11.18;;
32228;SDS011;18717;48.034;11.186;2023-02-11T09:49:16;17.90;;;9.73;;
32228;SDS011;18717;48.034;11.186;2023-02-11T09:51:47;17.33;;;10.77;;
32228;SDS011;18717;48.034;11.186;2023-02-11T09:54:18;12.77;;;10.00;;
32228;SDS011;18717;48.034;11.186;2023-02-11T09:56:47;15.07;;;10.88;;
32228;SDS011;18717;48.034;11.186;2023-02-11T09:59:15;16.83;;;9.85;;
32228;SDS011;18717;48.034;11.186;2023-02-11T10:01:44;19.42;;;11.65;;
32228;SDS011;18717;48.034;11.186;2023-02-11T10:04:16;17.42;;;11.40;;
32228;SDS011;18717;48.034;11.186;2023-02-11T10:06:50;14.63;;;10.95;;
32228;SDS011;18717;48.034;11.186;2023-02-11T10:09:32;16.77;;;11.52;;
32228;SDS011;18717;48.034;11.186;2023-02-11T10:12:10;16.20;;;11.05;;
32228;SDS011;18717;48.034;11.186;2023-02-11T10:14:49;16.92;;;13.32;;
32228;SDS011;18717;48.034;11.186;2023-02-11T10:17:36;17.38;;;12.00;;
32228;SDS011;18717;48.034;11.186;2023-02-11T10:20:17;15.38;;;12.15;;
32228;SDS011;18717;48.034;11.186;2023-02-11T10:22:53;18.20;;;11.70;;
32228;SDS011;18717;48.034;11.186;2023-02-11T10:25:22;30.88;;;15.02;;
32228;SDS011;18717;48.034;11.186;2023-02-11T10:27:52;20.58;;;14.13;;
32228;SDS011;18717;48.034;11.186;2023-02-11T10:30:23;18.27;;;11.52;;
32228;SDS011;18717;48.034;11.186;2023-02-11T10:32:55;20.75;;;11.80;;
32228;SDS011;18717;48.034;11.186;2023-02-11T10:35:26;17.15;;;12.10;;
32228;SDS011;18717;48.034;11.186;2023-02-11T10:37:55;16.17;;;11.35;;
32228;SDS011;18717;48.034;11.186;2023-02-11T10:40:24;18.80;;;12.55;;
32228;SDS011;18717;48.034;11.186;2023-02-11T10:42:54;16.23;;;12.32;;
32228;SDS011;18717;48.034;11.186;2023-02-11T10:45:26;15.93;;;11.98;;
32228;SDS011;18717;48.034;11.186;2023-02-11T10:47:59;20.55;;;13.98;;
32228;SDS011;18717;48.034;11.186;2023-02-11T10:50:28;17.35;;;13.32;;
32228;SDS011;18717;48.034;11.186;2023-02-11T10:53:11;19.02;;;14.68;;
32228;SDS011;18717;48.034;11.186;2023-02-11T10:55:47;20.40;;;14.40;;
32228;SDS011;18717;48.034;11.186;2023-02-11T10:58:23;19.77;;;14.05;;
32228;SDS011;18717;48.034;11.186;2023-02-11T11:00:53;20.60;;;14.27;;
32228;SDS011;18717;48.034;11.186;2023-02-11T11:03:22;19.42;;;14.85;;
32228;SDS011;18717;48.034;11.186;2023-02-11T11:05:52;19.65;;;14.55;;
32228;SDS011;18717;48.034;11.186;2023-02-11T11:08:36;17.73;;;12.85;;
32228;SDS011;18717;48.034;11.186;2023-02-11T11:11:05;15.70;;;12.93;;
32228;SDS011;18717;48.034;11.186;2023-02-11T11:13:34;19.95;;;12.73;;
32228;SDS011;18717;48.034;11.186;2023-02-11T11:16:07;15.27;;;12.45;;
32228;SDS011;18717;48.034;11.186;2023-02-11T11:18:43;17.98;;;13.13;;
32228;SDS011;18717;48.034;11.186;2023-02-11T11:21:12;14.18;;;11.88;;
32228;SDS011;18717;48.034;11.186;2023-02-11T11:23:47;13.93;;;12.45;;
32228;SDS011;18717;48.034;11.186;2023-02-11T11:26:17;16.27;;;13.30;;
32228;SDS011;18717;48.034;11.186;2023-02-11T11:28:52;13.30;;;12.00;;
32228;SDS011;18717;48.034;11.186;2023-02-11T11:31:23;13.05;;;11.40;;
32228;SDS011;18717;48.034;11.186;2023-02-11T11:33:53;13.20;;;11.20;;
32228;SDS011;18717;48.034;11.186;2023-02-11T11:36:22;12.63;;;11.23;;
32228;SDS011;18717;48.034;11.186;2023-02-11T11:38:58;12.85;;;10.93;;
32228;SDS011;18717;48.034;11.186;2023-02-11T11:41:28;12.90;;;11.57;;
32228;SDS011;18717;48.034;11.186;2023-02-11T11:43:57;14.68;;;11.30;;
32228;SDS011;18717;48.034;11.186;2023-02-11T11:46:30;13.50;;;12.00;;
32228;SDS011;18717;48.034;11.186;2023-02-11T11:49:06;15.00;;;11.68;;
32228;SDS011;18717;48.034;11.186;2023-02-11T11:51:40;12.50;;;10.52;;
32228;SDS011;18717;48.034;11.186;2023-02-11T11:54:11;16.98;;;12.15;;
32228;SDS011;18717;48.034;11.186;2023-02-11T11:56:40;9.95;;;8.13;;
32228;SDS011;18717;48.034;11.186;2023-02-11T14:29:47;12.80;;;11.35;;
32228;SDS011;18717;48.034;11.186;2023-02-11T14:32:21;14.02;;;12.52;;
32228;SDS011;18717;48.034;11.186;2023-02-11T14:35:00;16.23;;;13.10;;
32228;SDS011;18717;48.034;11.186;2023-02-11T14:37:35;14.60;;;13.10;;
32228;SDS011;18717;48.034;11.186;2023-02-11T14:40:22;15.48;;;11.68;;
32228;SDS011;18717;48.034;11.186;2023-02-11T14:42:53;14.98;;;13.30;;
32228;SDS011;18717;48.034;11.186;2023-02-11T14:45:23;19.58;;;12.65;;
32228;SDS011;18717;48.034;11.186;2023-02-11T14:47:53;20.17;;;15.45;;
32228;SDS011;18717;48.034;11.186;2023-02-11T14:52:52;23.83;;;15.93;;
32228;SDS011;18717;48.034;11.186;2023-02-11T14:55:26;20.48;;;14.20;;
32228;SDS011;18717;48.034;11.186;2023-02-11T14:58:05;18.17;;;15.30;;
32228;SDS011;18717;48.034;11.186;2023-02-11T15:00:35;16.92;;;14.27;;
32228;SDS011;18717;48.034;11.186;2023-02-11T15:03:03;18.50;;;16.50;;
32228;SDS011;18717;48.034;11.186;2023-02-11T15:05:30;20.88;;;15.90;;
32228;SDS011;18717;48.034;11.186;2023-02-11T15:07:58;22.70;;;15.05;;
32228;SDS011;18717;48.034;11.186;2023-02-11T15:10:29;20.27;;;15.65;;
32228;SDS011;18717;48.034;11.186;2023-02-11T15:12:58;23.63;;;16.48;;
32228;SDS011;18717;48.034;11.186;2023-02-11T15:15:26;24.42;;;16.48;;
32228;SDS011;18717;48.034;11.186;2023-02-11T15:17:56;19.48;;;16.02;;
32228;SDS011;18717;48.034;11.186;2023-02-11T15:20:26;22.05;;;16.15;;
32228;SDS011;18717;48.034;11.186;2023-02-11T15:22:57;17.10;;;15.20;;
32228;SDS011;18717;48.034;11.186;2023-02-11T15:25:26;20.73;;;16.23;;
32228;SDS011;18717;48.034;11.186;2023-02-11T15:27:56;19.13;;;16.58;;
32228;SDS011;18717;48.034;11.186;2023-02-11T15:30:29;28.17;;;16.98;;
32228;SDS011;18717;48.034;11.186;2023-02-11T15:33:01;22.00;;;17.20;;
32228;SDS011;18717;48.034;11.186;2023-02-11T15:35:31;22.65;;;17.08;;
32228;SDS011;18717;48.034;11.186;2023-02-11T15:38:01;29.20;;;17.45;;
32228;SDS011;18717;48.034;11.186;2023-02-11T15:40:30;29.08;;;17.67;;
32228;SDS011;18717;48.034;11.186;2023-02-11T15:42:59;23.73;;;17.35;;
32228;SDS011;18717;48.034;11.186;2023-02-11T15:45:29;21.35;;;17.67;;
32228;SDS011;18717;48.034;11.186;2023-02-11T15:47:58;20.77;;;16.85;;
32228;SDS011;18717;48.034;11.186;2023-02-11T15:50:34;18.00;;;16.02;;
32228;SDS011;18717;48.034;11.186;2023-02-11T15:53:03;28.50;;;17.70;;
32228;SDS011;18717;48.034;11.186;2023-02-11T15:55:42;24.10;;;18.35;;
32228;SDS011;18717;48.034;11.186;2023-02-11T15:58:11;25.90;;;17.88;;
32228;SDS011;18717;48.034;11.186;2023-02-11T16:00:44;23.60;;;17.20;;
32228;SDS011;18717;48.034;11.186;2023-02-11T16:03:19;24.60;;;18.80;;
32228;SDS011;18717;48.034;11.186;2023-02-11T16:05:49;24.80;;;17.02;;
32228;SDS011;18717;48.034;11.186;2023-02-11T16:08:19;32.30;;;18.20;;
32228;SDS011;18717;48.034;11.186;2023-02-11T16:10:53;23.75;;;16.38;;
32228;SDS011;18717;48.034;11.186;2023-02-11T16:13:24;32.03;;;18.17;;
32228;SDS011;18717;48.034;11.186;2023-02-11T16:15:53;24.30;;;17.42;;
32228;SDS011;18717;48.034;11.186;2023-02-11T16:18:31;29.83;;;18.58;;
32228;SDS011;18717;48.034;11.186;2023-02-11T16:23:33;27.48;;;17.13;;
32228;SDS011;18717;48.034;11.186;2023-02-11T16:26:02;27.20;;;18.02;;
32228;SDS011;18717;48.034;11.186;2023-02-11T16:28:34;31.60;;;18.90;;
32228;SDS011;18717;48.034;11.186;2023-02-11T16:31:02;36.25;;;19.35;;
32228;SDS011;18717;48.034;11.186;2023-02-11T16:33:32;29.42;;;19.58;;
32228;SDS011;18717;48.034;11.186;2023-02-11T16:36:00;25.95;;;18.48;;
32228;SDS011;18717;48.034;11.186;2023-02-11T16:38:28;32.30;;;20.10;;
32228;SDS011;18717;48.034;11.186;2023-02-11T16:40:56;31.75;;;21.35;;
32228;SDS011;18717;48.034;11.186;2023-02-11T16:43:24;32.17;;;21.52;;
32228;SDS011;18717;48.034;11.186;2023-02-11T16:45:51;38.10;;;20.90;;
32228;SDS011;18717;48.034;11.186;2023-02-11T16:48:19;36.47;;;21.02;;
32228;SDS011;18717;48.034;11.186;2023-02-11T16:50:48;31.67;;;19.65;;
32228;SDS011;18717;48.034;11.186;2023-02-11T16:53:20;32.88;;;19.98;;
32228;SDS011;18717;48.034;11.186;2023-02-11T16:55:49;39.22;;;25.25;;
32228;SDS011;18717;48.034;11.186;2023-02-11T16:58:17;38.58;;;24.90;;
32228;SDS011;18717;48.034;11.186;2023-02-11T17:00:45;34.55;;;23.08;;
32228;SDS011;18717;48.034;11.186;2023-02-11T17:03:15;41.25;;;21.17;;
32228;SDS011;18717;48.034;11.186;2023-02-11T17:05:44;32.88;;;21.20;;